sensor_id;sensor_type;location;lat;lon;timestamp;pressure;altitude;pressure_sealevel;temperature;humidity
43770;BME280;6597;52.218;9.882;2023-04-02T00:01:53;100387.75;;;2.50;100.00
43770;BME280;6597;52.218;9.882;2023-04-02T00:04:22;100395.56;;;2.48;100.00
43770;BME280;6597;52.218;9.882;2023-04-02T00:06:55;100398.13;;;2.50;100.00
43770;BME280;6597;52.218;9.882;2023-04-02T00:09:41;100392.91;;;2.53;100.00
43770;BME280;6597;52.218;9.882;2023-04-02T00:12:17;100401.59;;;2.49;100.00
43770;BME280;6597;52.218;9.882;2023-04-02T00:14:47;100403.31;;;2.50;100.00
43770;BME280;6597;52.218;9.882;2023-04-02T00:17:14;100405.88;;;2.53;100.00
43770;BME280;6597;52.218;9.882;2023-04-02T00:19:46;100411.09;;;2.50;100.00
43770;BME280;6597;52.218;9.882;2023-04-02T00:22:17;100427.50;;;2.50;100.00
43770;BME280;6597;52.218;9.882;2023-04-02T00:24:44;100427.50;;;2.49;100.00
43770;BME280;6597;52.218;9.882;2023-04-02T00:27:11;100428.34;;;2.53;100.00
43770;BME280;6597;52.218;9.882;2023-04-02T00:29:44;100446.50;;;2.49;100.00
43770;BME280;6597;52.218;9.882;2023-04-02T00:32:17;100452.56;;;2.45;100.00
43770;BME280;6597;52.218;9.882;2023-04-02T00:34:46;100455.16;;;2.45;100.00
43770;BME280;6597;52.218;9.882;2023-04-02T00:37:15;100450.00;;;2.44;100.00
43770;BME280;6597;52.218;9.882;2023-04-02T00:39:50;100448.25;;;2.44;100.00
43770;BME280;6597;52.218;9.882;2023-04-02T00:42:18;100456.91;;;2.43;100.00
43770;BME280;6597;52.218;9.882;2023-04-02T00:44:45;100462.06;;;2.45;100.00
43770;BME280;6597;52.218;9.882;2023-04-02T00:47:17;100463.84;;;2.40;100.00
43770;BME280;6597;52.218;9.882;2023-04-02T00:49:48;100471.56;;;2.44;100.00
43770;BME280;6597;52.218;9.882;2023-04-02T00:52:17;100469.88;;;2.42;100.00
43770;BME280;6597;52.218;9.882;2023-04-02T00:54:48;100474.19;;;2.40;100.00
43770;BME280;6597;52.218;9.882;2023-04-02T00:57:19;100493.19;;;2.42;100.00
43770;BME280;6597;52.218;9.882;2023-04-02T00:59:53;100479.44;;;2.34;100.00
43770;BME280;6597;52.218;9.882;2023-04-02T01:02:26;100487.19;;;2.34;100.00
43770;BME280;6597;52.218;9.882;2023-04-02T01:04:56;100489.78;;;2.35;100.00
43770;BME280;6597;52.218;9.882;2023-04-02T01:10:38;100496.72;;;2.29;100.00
43770;BME280;6597;52.218;9.882;2023-04-02T01:13:17;100495.00;;;2.29;100.00
43770;BME280;6597;52.218;9.882;2023-04-02T01:15:50;100497.59;;;2.29;100.00
43770;BME280;6597;52.218;9.882;2023-04-02T01:18:29;100509.66;;;2.26;100.00
43770;BME280;6597;52.218;9.882;2023-04-02T01:21:10;100513.13;;;2.25;100.00
43770;BME280;6597;52.218;9.882;2023-04-02T01:23:57;100520.03;;;2.26;100.00
43770;BME280;6597;52.218;9.882;2023-04-02T01:26:35;100522.59;;;2.27;100.00
43770;BME280;6597;52.218;9.882;2023-04-02T01:29:09;100532.97;;;2.26;100.00
43770;BME280;6597;52.218;9.882;2023-04-02T01:31:39;100526.06;;;2.25;100.00
43770;BME280;6597;52.218;9.882;2023-04-02T01:34:10;100545.94;;;2.24;100.00
43770;BME280;6597;52.218;9.882;2023-04-02T01:36:41;100541.63;;;2.22;100.00
43770;BME280;6597;52.218;9.882;2023-04-02T01:39:18;100544.25;;;2.15;100.00
43770;BME280;6597;52.218;9.882;2023-04-02T01:41:50;100555.47;;;2.13;100.00
43770;BME280;6597;52.218;9.882;2023-04-02T01:44:24;100560.66;;;2.14;100.00
43770;BME280;6597;52.218;9.882;2023-04-02T01:46:53;100562.38;;;2.12;100.00
43770;BME280;6597;52.218;9.882;2023-04-02T01:49:23;100567.59;;;2.09;100.00
43770;BME280;6597;52.218;9.882;2023-04-02T01:51:53;100577.06;;;2.10;100.00
43770;BME280;6597;52.218;9.882;2023-04-02T01:54:22;100580.53;;;2.11;100.00
43770;BME280;6597;52.218;9.882;2023-04-02T01:56:50;100584.84;;;2.07;100.00
43770;BME280;6597;52.218;9.882;2023-04-02T01:59:19;100592.63;;;2.06;100.00
43770;BME280;6597;52.218;9.882;2023-04-02T02:01:56;100599.53;;;2.07;100.00
43770;BME280;6597;52.218;9.882;2023-04-02T02:04:26;100602.97;;;2.06;100.00
43770;BME280;6597;52.218;9.882;2023-04-02T02:06:53;100598.69;;;2.05;100.00
43770;BME280;6597;52.218;9.882;2023-04-02T02:09:25;100604.72;;;2.04;100.00
43770;BME280;6597;52.218;9.882;2023-04-02T02:11:52;100615.94;;;2.03;100.00
43770;BME280;6597;52.218;9.882;2023-04-02T02:14:21;100615.09;;;2.02;100.00
43770;BME280;6597;52.218;9.882;2023-04-02T02:16:49;100617.69;;;2.01;100.00
43770;BME280;6597;52.218;9.882;2023-04-02T02:19:24;100635.78;;;2.02;100.00
43770;BME280;6597;52.218;9.882;2023-04-02T02:21:53;100634.94;;;2.03;100.00
43770;BME280;6597;52.218;9.882;2023-04-02T02:24:23;100634.94;;;2.00;100.00
43770;BME280;6597;52.218;9.882;2023-04-02T02:27:00;100635.81;;;1.99;100.00
43770;BME280;6597;52.218;9.882;2023-04-02T02:29:34;100642.72;;;1.99;100.00
43770;BME280;6597;52.218;9.882;2023-04-02T02:32:03;100654.78;;;2.01;100.00
43770;BME280;6597;52.218;9.882;2023-04-02T02:34:36;100654.78;;;1.98;100.00
43770;BME280;6597;52.218;9.882;2023-04-02T02:37:11;100659.09;;;2.01;100.00
43770;BME280;6597;52.218;9.882;2023-04-02T02:39:42;100669.47;;;1.99;100.00
43770;BME280;6597;52.218;9.882;2023-04-02T02:42:15;100676.34;;;2.02;100.00
43770;BME280;6597;52.218;9.882;2023-04-02T02:44:46;100678.94;;;2.00;100.00
43770;BME280;6597;52.218;9.882;2023-04-02T02:47:15;100680.66;;;2.01;100.00
43770;BME280;6597;52.218;9.882;2023-04-02T02:49:48;100674.63;;;2.02;100.00
43770;BME280;6597;52.218;9.882;2023-04-02T02:52:20;100697.06;;;1.99;100.00
43770;BME280;6597;52.218;9.882;2023-04-02T02:54:58;100696.22;;;1.98;100.00
43770;BME280;6597;52.218;9.882;2023-04-02T02:57:37;100700.53;;;1.98;100.00
43770;BME280;6597;52.218;9.882;2023-04-02T03:00:07;100699.66;;;1.97;99.64
43770;BME280;6597;52.218;9.882;2023-04-02T03:02:38;100708.28;;;1.98;99.97
43770;BME280;6597;52.218;9.882;2023-04-02T03:05:15;100715.16;;;1.94;99.25
43770;BME280;6597;52.218;9.882;2023-04-02T03:07:44;100719.50;;;1.98;98.90
43770;BME280;6597;52.218;9.882;2023-04-02T03:10:15;100723.81;;;1.99;99.56
43770;BME280;6597;52.218;9.882;2023-04-02T03:12:46;100726.41;;;2.01;99.55
43770;BME280;6597;52.218;9.882;2023-04-02T03:15:20;100731.59;;;1.99;99.04
43770;BME280;6597;52.218;9.882;2023-04-02T03:17:54;100749.72;;;1.99;99.32
43770;BME280;6597;52.218;9.882;2023-04-02T03:20:32;100746.25;;;2.00;99.26
43770;BME280;6597;52.218;9.882;2023-04-02T03:23:03;100759.22;;;2.00;98.69
43770;BME280;6597;52.218;9.882;2023-04-02T03:25:38;100760.06;;;1.96;97.98
43770;BME280;6597;52.218;9.882;2023-04-02T03:28:12;100763.53;;;2.00;98.65
43770;BME280;6597;52.218;9.882;2023-04-02T03:30:43;100766.94;;;1.94;97.46
43770;BME280;6597;52.218;9.882;2023-04-02T03:33:19;100767.84;;;1.96;98.04
43770;BME280;6597;52.218;9.882;2023-04-02T03:35:55;100771.28;;;1.97;98.44
43770;BME280;6597;52.218;9.882;2023-04-02T03:38:26;100778.19;;;2.01;98.60
43770;BME280;6597;52.218;9.882;2023-04-02T03:41:00;100778.19;;;2.01;99.05
43770;BME280;6597;52.218;9.882;2023-04-02T03:43:31;100790.28;;;1.97;97.22
43770;BME280;6597;52.218;9.882;2023-04-02T03:46:10;100795.44;;;1.97;96.18
43770;BME280;6597;52.218;9.882;2023-04-02T03:48:42;100797.19;;;1.97;96.60
43770;BME280;6597;52.218;9.882;2023-04-02T03:51:17;100801.50;;;1.96;96.68
43770;BME280;6597;52.218;9.882;2023-04-02T03:53:47;100808.38;;;1.93;95.87
43770;BME280;6597;52.218;9.882;2023-04-02T03:56:24;100807.53;;;1.95;94.84
43770;BME280;6597;52.218;9.882;2023-04-02T03:59:02;100815.28;;;1.92;95.38
43770;BME280;6597;52.218;9.882;2023-04-02T04:01:32;100817.84;;;1.92;94.60
43770;BME280;6597;52.218;9.882;2023-04-02T04:04:05;100828.22;;;1.94;95.48
43770;BME280;6597;52.218;9.882;2023-04-02T04:06:40;100829.06;;;1.94;94.94
43770;BME280;6597;52.218;9.882;2023-04-02T04:09:10;100837.69;;;1.93;95.55
43770;BME280;6597;52.218;9.882;2023-04-02T04:11:44;100838.56;;;1.94;95.58
43770;BME280;6597;52.218;9.882;2023-04-02T04:14:15;100843.78;;;1.97;96.45
43770;BME280;6597;52.218;9.882;2023-04-02T04:16:46;100854.13;;;1.98;96.58
43770;BME280;6597;52.218;9.882;2023-04-02T04:19:24;100860.19;;;1.99;96.36
43770;BME280;6597;52.218;9.882;2023-04-02T04:22:08;100855.84;;;1.96;95.57
43770;BME280;6597;52.218;9.882;2023-04-02T04:24:35;100865.34;;;2.00;95.29
43770;BME280;6597;52.218;9.882;2023-04-02T04:27:07;100872.25;;;1.97;95.70
43770;BME280;6597;52.218;9.882;2023-04-02T04:29:48;100883.47;;;1.97;94.65
43770;BME280;6597;52.218;9.882;2023-04-02T04:32:23;100884.34;;;1.96;93.89
43770;BME280;6597;52.218;9.882;2023-04-02T04:35:01;100889.50;;;1.96;93.73
43770;BME280;6597;52.218;9.882;2023-04-02T04:37:34;100892.09;;;1.96;94.33
43770;BME280;6597;52.218;9.882;2023-04-02T04:40:10;100899.88;;;1.96;95.82
43770;BME280;6597;52.218;9.882;2023-04-02T04:42:42;100898.16;;;1.97;95.82
43770;BME280;6597;52.218;9.882;2023-04-02T04:45:21;100903.31;;;1.95;94.87
43770;BME280;6597;52.218;9.882;2023-04-02T04:47:58;100911.09;;;1.98;94.84
43770;BME280;6597;52.218;9.882;2023-04-02T04:50:30;100918.00;;;1.96;94.01
43770;BME280;6597;52.218;9.882;2023-04-02T04:53:05;100916.25;;;1.95;91.64
43770;BME280;6597;52.218;9.882;2023-04-02T04:55:37;100921.44;;;2.01;91.37
43770;BME280;6597;52.218;9.882;2023-04-02T04:58:14;100925.75;;;1.98;90.53
43770;BME280;6597;52.218;9.882;2023-04-02T05:00:52;100933.53;;;2.04;90.95
43770;BME280;6597;52.218;9.882;2023-04-02T05:03:27;100934.41;;;2.03;91.50
43770;BME280;6597;52.218;9.882;2023-04-02T05:06:04;100944.75;;;2.04;91.39
43770;BME280;6597;52.218;9.882;2023-04-02T05:08:38;100951.66;;;2.04;91.61
43770;BME280;6597;52.218;9.882;2023-04-02T05:11:10;100955.13;;;2.03;92.02
43770;BME280;6597;52.218;9.882;2023-04-02T05:13:43;100966.34;;;2.05;91.94
43770;BME280;6597;52.218;9.882;2023-04-02T05:16:15;100964.59;;;2.02;92.88
43770;BME280;6597;52.218;9.882;2023-04-02T05:18:49;100973.25;;;2.03;92.19
43770;BME280;6597;52.218;9.882;2023-04-02T05:21:22;100982.75;;;2.08;90.11
43770;BME280;6597;52.218;9.882;2023-04-02T05:23:57;100985.34;;;2.10;90.75
43770;BME280;6597;52.218;9.882;2023-04-02T05:26:29;100988.78;;;2.06;92.70
43770;BME280;6597;52.218;9.882;2023-04-02T05:29:00;100988.78;;;2.10;91.55
43770;BME280;6597;52.218;9.882;2023-04-02T05:31:38;100989.66;;;2.12;90.64
43770;BME280;6597;52.218;9.882;2023-04-02T05:34:08;101001.75;;;2.10;90.94
43770;BME280;6597;52.218;9.882;2023-04-02T05:36:35;100995.69;;;2.10;91.53
43770;BME280;6597;52.218;9.882;2023-04-02T05:39:07;100997.44;;;2.12;91.28
43770;BME280;6597;52.218;9.882;2023-04-02T05:41:44;101012.97;;;2.17;89.94
43770;BME280;6597;52.218;9.882;2023-04-02T05:44:20;101005.19;;;2.15;91.19
43770;BME280;6597;52.218;9.882;2023-04-02T05:46:53;101015.56;;;2.18;91.13
43770;BME280;6597;52.218;9.882;2023-04-02T05:49:27;101018.16;;;2.22;91.26
43770;BME280;6597;52.218;9.882;2023-04-02T05:51:59;101028.53;;;2.25;91.71
43770;BME280;6597;52.218;9.882;2023-04-02T05:54:33;101038.91;;;2.25;91.63
43770;BME280;6597;52.218;9.882;2023-04-02T05:57:12;101034.59;;;2.27;89.57
43770;BME280;6597;52.218;9.882;2023-04-02T05:59:42;101041.53;;;2.28;89.79
43770;BME280;6597;52.218;9.882;2023-04-02T06:02:18;101036.31;;;2.26;90.42
43770;BME280;6597;52.218;9.882;2023-04-02T06:04:52;101055.31;;;2.27;91.06
43770;BME280;6597;52.218;9.882;2023-04-02T06:07:28;101051.88;;;2.31;90.87
43770;BME280;6597;52.218;9.882;2023-04-02T06:10:04;101066.56;;;2.33;91.32
43770;BME280;6597;52.218;9.882;2023-04-02T06:12:38;101066.59;;;2.39;90.11
43770;BME280;6597;52.218;9.882;2023-04-02T06:15:11;101072.63;;;2.41;89.60
43770;BME280;6597;52.218;9.882;2023-04-02T06:17:44;101069.19;;;2.45;89.55
43770;BME280;6597;52.218;9.882;2023-04-02T06:20:14;101076.09;;;2.43;89.27
43770;BME280;6597;52.218;9.882;2023-04-02T06:22:44;101080.41;;;2.44;89.64
43770;BME280;6597;52.218;9.882;2023-04-02T06:25:20;101083.88;;;2.42;88.00
43770;BME280;6597;52.218;9.882;2023-04-02T06:27:49;101091.66;;;2.46;88.66
43770;BME280;6597;52.218;9.882;2023-04-02T06:30:22;101104.63;;;2.53;88.63
43770;BME280;6597;52.218;9.882;2023-04-02T06:32:51;101102.03;;;2.54;88.60
43770;BME280;6597;52.218;9.882;2023-04-02T06:35:18;101112.38;;;2.48;87.40
43770;BME280;6597;52.218;9.882;2023-04-02T06:37:56;101113.25;;;2.47;86.97
43770;BME280;6597;52.218;9.882;2023-04-02T06:40:36;101125.34;;;2.53;86.44
43770;BME280;6597;52.218;9.882;2023-04-02T06:43:16;101124.50;;;2.54;86.85
43770;BME280;6597;52.218;9.882;2023-04-02T06:45:57;101127.09;;;2.57;87.58
43770;BME280;6597;52.218;9.882;2023-04-02T06:49:00;101132.28;;;2.55;86.88
43770;BME280;6597;52.218;9.882;2023-04-02T06:51:29;101139.25;;;2.62;85.87
43770;BME280;6597;52.218;9.882;2023-04-02T06:53:58;101140.06;;;2.60;87.40
43770;BME280;6597;52.218;9.882;2023-04-02T06:56:35;101146.16;;;2.66;88.33
43770;BME280;6597;52.218;9.882;2023-04-02T06:59:04;101147.91;;;2.70;87.50
43770;BME280;6597;52.218;9.882;2023-04-02T07:01:34;101150.50;;;2.72;86.87
43770;BME280;6597;52.218;9.882;2023-04-02T07:04:02;101160.00;;;2.68;84.02
43770;BME280;6597;52.218;9.882;2023-04-02T07:06:35;101148.75;;;2.72;83.79
43770;BME280;6597;52.218;9.882;2023-04-02T07:09:03;101171.22;;;2.69;83.12
43770;BME280;6597;52.218;9.882;2023-04-02T07:11:31;101165.19;;;2.73;84.06
43770;BME280;6597;52.218;9.882;2023-04-02T07:14:00;101175.56;;;2.73;82.98
43770;BME280;6597;52.218;9.882;2023-04-02T07:16:29;101169.50;;;2.71;82.43
43770;BME280;6597;52.218;9.882;2023-04-02T07:18:57;101180.75;;;2.74;82.67
43770;BME280;6597;52.218;9.882;2023-04-02T07:21:25;101195.44;;;2.72;83.15
43770;BME280;6597;52.218;9.882;2023-04-02T07:23:52;101202.34;;;2.75;83.29
43770;BME280;6597;52.218;9.882;2023-04-02T07:26:20;101188.53;;;2.82;85.01
43770;BME280;6597;52.218;9.882;2023-04-02T07:28:49;101208.41;;;2.78;83.59
43770;BME280;6597;52.218;9.882;2023-04-02T07:31:17;101205.84;;;2.86;85.22
43770;BME280;6597;52.218;9.882;2023-04-02T07:33:44;101217.13;;;2.96;85.71
43770;BME280;6597;52.218;9.882;2023-04-02T07:36:13;101222.34;;;3.05;84.66
43770;BME280;6597;52.218;9.882;2023-04-02T07:38:41;101228.41;;;3.08;85.62
43770;BME280;6597;52.218;9.882;2023-04-02T07:41:07;101227.53;;;3.03;84.37
43770;BME280;6597;52.218;9.882;2023-04-02T07:43:34;101228.41;;;3.08;85.33
43770;BME280;6597;52.218;9.882;2023-04-02T07:46:03;101235.31;;;3.05;85.16
43770;BME280;6597;52.218;9.882;2023-04-02T07:48:30;101243.09;;;3.08;84.69
43770;BME280;6597;52.218;9.882;2023-04-02T07:50:56;101244.81;;;3.07;84.76
43770;BME280;6597;52.218;9.882;2023-04-02T07:53:28;101250.03;;;3.13;85.58
43770;BME280;6597;52.218;9.882;2023-04-02T07:55:56;101244.84;;;3.18;85.07
43770;BME280;6597;52.218;9.882;2023-04-02T07:58:23;101259.56;;;3.22;85.98
43770;BME280;6597;52.218;9.882;2023-04-02T08:00:49;101261.31;;;3.28;82.64
43770;BME280;6597;52.218;9.882;2023-04-02T08:03:18;101264.78;;;3.30;83.32
43770;BME280;6597;52.218;9.882;2023-04-02T08:05:49;101276.03;;;3.29;81.99
43770;BME280;6597;52.218;9.882;2023-04-02T08:08:16;101277.75;;;3.31;82.73
43770;BME280;6597;52.218;9.882;2023-04-02T08:10:43;101281.22;;;3.35;83.35
43770;BME280;6597;52.218;9.882;2023-04-02T08:13:09;101289.88;;;3.35;83.79
43770;BME280;6597;52.218;9.882;2023-04-02T08:15:36;101287.31;;;3.41;82.39
43770;BME280;6597;52.218;9.882;2023-04-02T08:18:03;101284.69;;;3.41;83.89
43770;BME280;6597;52.218;9.882;2023-04-02T08:20:31;101295.94;;;3.40;82.56
43770;BME280;6597;52.218;9.882;2023-04-02T08:22:57;101295.97;;;3.43;83.93
43770;BME280;6597;52.218;9.882;2023-04-02T08:25:25;101306.34;;;3.47;84.64
43770;BME280;6597;52.218;9.882;2023-04-02T08:27:52;101303.75;;;3.51;83.05
43770;BME280;6597;52.218;9.882;2023-04-02T08:30:19;101311.53;;;3.50;83.51
43770;BME280;6597;52.218;9.882;2023-04-02T08:32:45;101316.72;;;3.53;84.70
43770;BME280;6597;52.218;9.882;2023-04-02T08:35:14;101324.53;;;3.56;84.63
43770;BME280;6597;52.218;9.882;2023-04-02T08:37:42;101326.25;;;3.55;84.44
43770;BME280;6597;52.218;9.882;2023-04-02T08:40:19;101340.09;;;3.56;86.29
43770;BME280;6597;52.218;9.882;2023-04-02T08:43:00;101335.78;;;3.55;85.57
43770;BME280;6597;52.218;9.882;2023-04-02T08:45:35;101346.16;;;3.55;84.67
43770;BME280;6597;52.218;9.882;2023-04-02T08:48:09;101347.03;;;3.55;82.85
43770;BME280;6597;52.218;9.882;2023-04-02T08:50:39;101350.47;;;3.53;84.81
43770;BME280;6597;52.218;9.882;2023-04-02T08:53:14;101356.56;;;3.58;85.75
43770;BME280;6597;52.218;9.882;2023-04-02T08:55:48;101351.41;;;3.71;84.13
43770;BME280;6597;52.218;9.882;2023-04-02T08:58:27;101358.34;;;3.74;84.06
43770;BME280;6597;52.218;9.882;2023-04-02T09:01:00;101354.88;;;3.78;84.18
43770;BME280;6597;52.218;9.882;2023-04-02T09:03:31;101361.81;;;3.85;84.08
43770;BME280;6597;52.218;9.882;2023-04-02T09:06:01;101362.69;;;3.83;82.14
43770;BME280;6597;52.218;9.882;2023-04-02T09:08:30;101367.88;;;3.84;84.74
43770;BME280;6597;52.218;9.882;2023-04-02T09:11:03;101370.47;;;3.84;82.24
43770;BME280;6597;52.218;9.882;2023-04-02T09:13:33;101385.19;;;3.82;84.19
43770;BME280;6597;52.218;9.882;2023-04-02T09:16:06;101387.78;;;3.82;83.00
43770;BME280;6597;52.218;9.882;2023-04-02T09:18:34;101402.50;;;3.83;82.85
43770;BME280;6597;52.218;9.882;2023-04-02T09:21:12;101399.91;;;3.86;83.01
43770;BME280;6597;52.218;9.882;2023-04-02T09:23:44;101402.50;;;3.80;83.38
43770;BME280;6597;52.218;9.882;2023-04-02T09:26:19;101405.09;;;3.80;82.99
43770;BME280;6597;52.218;9.882;2023-04-02T09:28:47;101414.63;;;3.83;84.26
43770;BME280;6597;52.218;9.882;2023-04-02T09:31:18;101406.84;;;3.86;83.77
43770;BME280;6597;52.218;9.882;2023-04-02T09:33:49;101417.25;;;3.90;83.25
43770;BME280;6597;52.218;9.882;2023-04-02T09:36:25;101423.34;;;3.97;81.63
43770;BME280;6597;52.218;9.882;2023-04-02T09:38:59;101425.94;;;3.98;81.60
43770;BME280;6597;52.218;9.882;2023-04-02T09:41:31;101432.00;;;4.02;81.39
43770;BME280;6597;52.218;9.882;2023-04-02T09:44:12;101437.22;;;4.08;79.70
43770;BME280;6597;52.218;9.882;2023-04-02T09:46:51;101431.16;;;4.07;80.14
43770;BME280;6597;52.218;9.882;2023-04-02T09:49:20;101449.34;;;4.11;80.21
43770;BME280;6597;52.218;9.882;2023-04-02T09:52:06;101459.75;;;4.17;79.69
43770;BME280;6597;52.218;9.882;2023-04-02T09:54:34;101454.53;;;4.17;79.47
43770;BME280;6597;52.218;9.882;2023-04-02T09:57:16;101460.59;;;4.06;79.86
43770;BME280;6597;52.218;9.882;2023-04-02T09:59:45;101466.66;;;4.16;81.23
43770;BME280;6597;52.218;9.882;2023-04-02T10:02:23;101471.84;;;4.12;80.72
43770;BME280;6597;52.218;9.882;2023-04-02T10:04:50;101466.63;;;4.02;79.25
43770;BME280;6597;52.218;9.882;2023-04-02T10:07:31;101482.25;;;4.13;78.23
43770;BME280;6597;52.218;9.882;2023-04-02T10:10:03;101481.38;;;4.14;76.83
43770;BME280;6597;52.218;9.882;2023-04-02T10:12:41;101484.84;;;4.18;78.14
43770;BME280;6597;52.218;9.882;2023-04-02T10:15:13;101493.53;;;4.20;78.30
43770;BME280;6597;52.218;9.882;2023-04-02T10:17:42;101492.66;;;4.18;76.43
43770;BME280;6597;52.218;9.882;2023-04-02T10:20:17;101493.50;;;4.15;76.97
43770;BME280;6597;52.218;9.882;2023-04-02T10:22:46;101501.38;;;4.24;77.40
43770;BME280;6597;52.218;9.882;2023-04-02T10:25:15;101506.59;;;4.40;77.91
43770;BME280;6597;52.218;9.882;2023-04-02T10:27:47;101513.53;;;4.41;76.35
43770;BME280;6597;52.218;9.882;2023-04-02T10:30:19;101504.00;;;4.53;75.63
43770;BME280;6597;52.218;9.882;2023-04-02T10:32:53;101518.78;;;4.57;75.30
43770;BME280;6597;52.218;9.882;2023-04-02T10:35:37;101523.09;;;4.67;73.93
43770;BME280;6597;52.218;9.882;2023-04-02T10:38:25;101526.56;;;4.63;74.90
43770;BME280;6597;52.218;9.882;2023-04-02T10:40:59;101516.16;;;4.68;74.57
43770;BME280;6597;52.218;9.882;2023-04-02T10:43:45;101524.84;;;4.73;75.55
43770;BME280;6597;52.218;9.882;2023-04-02T10:46:19;101517.03;;;4.78;72.81
43770;BME280;6597;52.218;9.882;2023-04-02T10:48:53;101523.97;;;4.79;73.12
43770;BME280;6597;52.218;9.882;2023-04-02T10:51:30;101527.44;;;4.78;72.04
43770;BME280;6597;52.218;9.882;2023-04-02T10:54:04;101525.72;;;4.81;71.68
43770;BME280;6597;52.218;9.882;2023-04-02T10:56:33;101531.78;;;4.85;74.51
43770;BME280;6597;52.218;9.882;2023-04-02T10:59:04;101533.53;;;4.90;73.84
43770;BME280;6597;52.218;9.882;2023-04-02T11:01:33;101538.75;;;4.93;74.47
43770;BME280;6597;52.218;9.882;2023-04-02T11:04:04;101543.94;;;5.09;74.04
43770;BME280;6597;52.218;9.882;2023-04-02T11:06:37;101545.66;;;5.11;71.24
43770;BME280;6597;52.218;9.882;2023-04-02T11:09:14;101550.00;;;5.20;70.23
43770;BME280;6597;52.218;9.882;2023-04-02T11:11:45;101543.06;;;5.11;69.44
43770;BME280;6597;52.218;9.882;2023-04-02T11:14:16;101555.22;;;5.20;71.94
43770;BME280;6597;52.218;9.882;2023-04-02T11:16:47;101556.94;;;5.15;70.52
43770;BME280;6597;52.218;9.882;2023-04-02T11:19:23;101555.22;;;5.26;71.84
43770;BME280;6597;52.218;9.882;2023-04-02T11:21:51;101557.81;;;5.35;70.35
43770;BME280;6597;52.218;9.882;2023-04-02T11:24:25;101564.75;;;5.41;71.14
43770;BME280;6597;52.218;9.882;2023-04-02T11:27:05;101574.28;;;5.45;69.10
43770;BME280;6597;52.218;9.882;2023-04-02T11:29:35;101567.34;;;5.47;68.37
43770;BME280;6597;52.218;9.882;2023-04-02T11:32:14;101567.34;;;5.51;69.26
43770;BME280;6597;52.218;9.882;2023-04-02T11:37:52;101576.81;;;6.03;70.05
43770;BME280;6597;52.218;9.882;2023-04-02T11:40:42;101581.06;;;6.27;65.81
43770;BME280;6597;52.218;9.882;2023-04-02T11:46:43;101593.13;;;6.53;65.36
43770;BME280;6597;52.218;9.882;2023-04-02T11:52:34;101589.63;;;6.58;66.06
43770;BME280;6597;52.218;9.882;2023-04-02T11:55:19;101606.19;;;6.47;65.90
43770;BME280;6597;52.218;9.882;2023-04-02T11:57:54;101603.59;;;6.40;64.50
43770;BME280;6597;52.218;9.882;2023-04-02T12:00:38;101603.56;;;6.47;64.14
43770;BME280;6597;52.218;9.882;2023-04-02T12:03:47;101607.06;;;6.45;63.51
43770;BME280;6597;52.218;9.882;2023-04-02T12:06:23;101612.25;;;6.49;63.70
43770;BME280;6597;52.218;9.882;2023-04-02T12:09:00;101620.06;;;6.55;64.61
43770;BME280;6597;52.218;9.882;2023-04-02T12:11:32;101622.75;;;6.39;62.65
43770;BME280;6597;52.218;9.882;2023-04-02T12:14:00;101622.78;;;6.27;63.54
43770;BME280;6597;52.218;9.882;2023-04-02T12:16:32;101623.69;;;6.24;61.93
43770;BME280;6597;52.218;9.882;2023-04-02T12:19:00;101620.19;;;6.16;64.12
43770;BME280;6597;52.218;9.882;2023-04-02T12:21:28;101622.84;;;6.10;65.93
43770;BME280;6597;52.218;9.882;2023-04-02T12:23:57;101623.63;;;6.33;65.65
43770;BME280;6597;52.218;9.882;2023-04-02T12:26:30;101619.66;;;7.24;63.91
43770;BME280;6597;52.218;9.882;2023-04-02T12:29:21;101611.25;;;7.88;58.70
43770;BME280;6597;52.218;9.882;2023-04-02T12:31:49;101620.53;;;8.12;55.66
43770;BME280;6597;52.218;9.882;2023-04-02T12:34:19;101615.81;;;8.48;54.68
43770;BME280;6597;52.218;9.882;2023-04-02T12:36:56;101623.16;;;8.86;56.51
43770;BME280;6597;52.218;9.882;2023-04-02T12:39:24;101619.38;;;9.05;54.45
43770;BME280;6597;52.218;9.882;2023-04-02T12:41:50;101621.28;;;8.94;56.86
43770;BME280;6597;52.218;9.882;2023-04-02T12:44:19;101622.09;;;8.97;54.80
43770;BME280;6597;52.218;9.882;2023-04-02T12:46:47;101608.41;;;9.35;53.60
43770;BME280;6597;52.218;9.882;2023-04-02T12:49:24;101608.88;;;9.60;50.59
43770;BME280;6597;52.218;9.882;2023-04-02T12:51:54;101616.97;;;9.47;52.74
43770;BME280;6597;52.218;9.882;2023-04-02T12:54:21;101613.84;;;9.25;52.33
43770;BME280;6597;52.218;9.882;2023-04-02T12:56:48;101612.81;;;9.33;51.20
43770;BME280;6597;52.218;9.882;2023-04-02T12:59:28;101609.31;;;9.34;52.40
43770;BME280;6597;52.218;9.882;2023-04-02T13:01:56;101610.78;;;8.95;52.73
43770;BME280;6597;52.218;9.882;2023-04-02T13:04:24;101612.84;;;8.72;53.52
43770;BME280;6597;52.218;9.882;2023-04-02T13:06:52;101605.13;;;8.64;54.79
43770;BME280;6597;52.218;9.882;2023-04-02T13:09:27;101613.09;;;8.55;55.04
43770;BME280;6597;52.218;9.882;2023-04-02T13:11:55;101611.44;;;8.48;54.02
43770;BME280;6597;52.218;9.882;2023-04-02T13:14:23;101615.16;;;8.27;55.29
43770;BME280;6597;52.218;9.882;2023-04-02T13:16:50;101616.13;;;8.20;53.34
43770;BME280;6597;52.218;9.882;2023-04-02T13:19:27;101619.41;;;8.39;53.51
43770;BME280;6597;52.218;9.882;2023-04-02T13:21:55;101621.88;;;8.51;52.35
43770;BME280;6597;52.218;9.882;2023-04-02T13:24:23;101625.41;;;8.49;53.33
43770;BME280;6597;52.218;9.882;2023-04-02T13:26:53;101627.16;;;8.48;54.82
43770;BME280;6597;52.218;9.882;2023-04-02T13:29:24;101626.78;;;8.74;55.20
43770;BME280;6597;52.218;9.882;2023-04-02T13:31:52;101633.47;;;8.96;52.49
43770;BME280;6597;52.218;9.882;2023-04-02T13:34:19;101630.09;;;8.88;54.57
43770;BME280;6597;52.218;9.882;2023-04-02T13:36:47;101626.09;;;8.61;55.05
43770;BME280;6597;52.218;9.882;2023-04-02T13:39:13;101628.06;;;8.42;55.06
43770;BME280;6597;52.218;9.882;2023-04-02T13:41:42;101629.06;;;8.34;54.45
43770;BME280;6597;52.218;9.882;2023-04-02T13:44:24;101629.88;;;8.37;55.28
43770;BME280;6597;52.218;9.882;2023-04-02T13:46:53;101634.97;;;8.50;55.27
43770;BME280;6597;52.218;9.882;2023-04-02T13:49:20;101632.19;;;8.62;54.01